This is the latest recevied weather packets stored in our database for station/object KO4IEJ. If no packets are shown the sender has not sent any weather packets the latest 10 day(s).
| Time | Temp. | Humidity | Pressure | Rain* | Wind** | Luminosity | Snow |
|---|---|---|---|---|---|---|---|
| 1777715172 | -3.33° C | 86% | 1024.7 hPa | 0 mm | - | - | - |
| 1777712464 | -3.33° C | 88% | 1024.5 hPa | 0 mm | - | - | - |
| 1777708862 | -2.78° C | 89% | 1024.7 hPa | 0 mm | - | - | - |
| 1777707056 | -2.22° C | 90% | 1024.8 hPa | 0 mm | - | - | - |
| 1777691770 | 0° C | 93% | 1024.2 hPa | 0 mm | - | - | - |
| 1777686353 | 0° C | 90% | 1022.7 hPa | 0.51 mm | - | - | - |
| 1777684555 | 1.67° C | 85% | 1022.4 hPa | 1.78 mm | - | - | - |
| 1777678260 | 6.67° C | 60% | 1021.8 hPa | 2.29 mm | - | - | - |
| 1777668352 | 5° C | 64% | 1022.2 hPa | 3.3 mm | - | - | - |
| 1777667451 | 5° C | 59% | 1022.2 hPa | 2.03 mm | - | - | - |
| 1777664760 | 6.11° C | 58% | 1022.4 hPa | 0.51 mm | - | - | - |
| 1777662073 | 5° C | 67% | 1022.7 hPa | 0.51 mm | - | - | - |
| 1777657571 | 4.44° C | 69% | 1023.2 hPa | 0.25 mm | - | - | - |
| 1777653955 | 2.22° C | 82% | 1023 hPa | 0.25 mm | - | - | - |
| 1777647659 | 0.56° C | 89% | 1022 hPa | 0 mm | - | - | - |
| 1777645856 | 0° C | 91% | 1021.7 hPa | 0 mm | - | - | - |
| 1777644051 | -0.56° C | 94% | 1021.7 hPa | 0 mm | - | - | - |
| 1777642254 | -1.67° C | 95% | 1021.6 hPa | 0 mm | - | - | - |
| 1777640457 | -1.67° C | 96% | 1021.3 hPa | 0 mm | - | - | - |
| 1777629653 | -2.22° C | 95% | 1021 hPa | 0 mm | - | - | - |
| 1777626953 | -2.22° C | 95% | 1021 hPa | 0 mm | - | - | - |
| 1777626052 | -2.22° C | 95% | 1021.1 hPa | 0 mm | - | - | - |
| 1777625152 | -2.22° C | 95% | 1021.2 hPa | 0 mm | - | - | - |
| 1777623356 | -1.67° C | 95% | 1021.3 hPa | 0 mm | - | - | - |
| 1777621574 | -1.67° C | 95% | 1021.5 hPa | 0 mm | - | - | - |
* Rain latest hour (hover to see other rain measurements)
** Current wind speed in m/s (hover to see current wind gust speed)